sensor_id;sensor_type;location;lat;lon;timestamp;P1;durP1;ratioP1;P2;durP2;ratioP2
11807;SDS011;5961;42.640;23.380;2023-02-03T00:01:18;2.20;;;2.10;;
11807;SDS011;5961;42.640;23.380;2023-02-03T00:03:45;3.27;;;2.20;;
11807;SDS011;5961;42.640;23.380;2023-02-03T00:06:12;2.53;;;2.33;;
11807;SDS011;5961;42.640;23.380;2023-02-03T00:08:38;5.50;;;2.97;;
11807;SDS011;5961;42.640;23.380;2023-02-03T00:11:05;2.80;;;2.57;;
11807;SDS011;5961;42.640;23.380;2023-02-03T00:13:33;3.73;;;2.47;;
11807;SDS011;5961;42.640;23.380;2023-02-03T00:16:02;3.93;;;2.20;;
11807;SDS011;5961;42.640;23.380;2023-02-03T00:18:30;3.27;;;2.53;;
11807;SDS011;5961;42.640;23.380;2023-02-03T00:20:57;3.77;;;2.70;;
11807;SDS011;5961;42.640;23.380;2023-02-03T00:23:24;3.03;;;2.73;;
11807;SDS011;5961;42.640;23.380;2023-02-03T00:25:54;2.83;;;2.50;;
11807;SDS011;5961;42.640;23.380;2023-02-03T00:28:20;3.77;;;2.93;;
11807;SDS011;5961;42.640;23.380;2023-02-03T00:30:47;3.27;;;2.50;;
11807;SDS011;5961;42.640;23.380;2023-02-03T00:33:15;3.47;;;3.00;;
11807;SDS011;5961;42.640;23.380;2023-02-03T00:35:42;4.10;;;2.80;;
11807;SDS011;5961;42.640;23.380;2023-02-03T00:38:08;3.37;;;2.90;;
11807;SDS011;5961;42.640;23.380;2023-02-03T00:40:35;3.77;;;3.30;;
11807;SDS011;5961;42.640;23.380;2023-02-03T00:43:02;3.50;;;2.90;;
11807;SDS011;5961;42.640;23.380;2023-02-03T00:45:28;3.70;;;3.00;;
11807;SDS011;5961;42.640;23.380;2023-02-03T00:47:55;4.07;;;2.90;;
11807;SDS011;5961;42.640;23.380;2023-02-03T00:50:23;6.83;;;3.17;;
11807;SDS011;5961;42.640;23.380;2023-02-03T00:52:50;4.40;;;2.93;;
11807;SDS011;5961;42.640;23.380;2023-02-03T00:55:17;3.40;;;2.97;;
11807;SDS011;5961;42.640;23.380;2023-02-03T00:57:43;5.00;;;3.43;;
11807;SDS011;5961;42.640;23.380;2023-02-03T01:00:10;4.00;;;3.20;;
11807;SDS011;5961;42.640;23.380;2023-02-03T01:02:38;3.40;;;3.10;;
11807;SDS011;5961;42.640;23.380;2023-02-03T01:05:05;5.87;;;3.50;;
11807;SDS011;5961;42.640;23.380;2023-02-03T01:07:33;3.83;;;3.40;;
11807;SDS011;5961;42.640;23.380;2023-02-03T01:10:00;5.87;;;3.53;;
11807;SDS011;5961;42.640;23.380;2023-02-03T01:12:27;3.97;;;3.50;;
11807;SDS011;5961;42.640;23.380;2023-02-03T01:14:54;2.93;;;2.73;;
11807;SDS011;5961;42.640;23.380;2023-02-03T01:17:21;3.60;;;2.90;;
11807;SDS011;5961;42.640;23.380;2023-02-03T01:19:49;2.90;;;2.50;;
11807;SDS011;5961;42.640;23.380;2023-02-03T01:22:16;3.47;;;2.60;;
11807;SDS011;5961;42.640;23.380;2023-02-03T01:24:44;2.93;;;2.53;;
11807;SDS011;5961;42.640;23.380;2023-02-03T01:27:11;2.37;;;2.13;;
11807;SDS011;5961;42.640;23.380;2023-02-03T01:29:38;2.50;;;2.30;;
11807;SDS011;5961;42.640;23.380;2023-02-03T01:32:04;2.63;;;2.03;;
11807;SDS011;5961;42.640;23.380;2023-02-03T01:34:31;2.60;;;2.40;;
11807;SDS011;5961;42.640;23.380;2023-02-03T01:36:58;3.43;;;2.07;;
11807;SDS011;5961;42.640;23.380;2023-02-03T01:39:25;2.30;;;2.10;;
11807;SDS011;5961;42.640;23.380;2023-02-03T01:41:53;2.47;;;2.27;;
11807;SDS011;5961;42.640;23.380;2023-02-03T01:44:40;3.40;;;2.13;;
11807;SDS011;5961;42.640;23.380;2023-02-03T01:47:16;2.50;;;2.00;;
11807;SDS011;5961;42.640;23.380;2023-02-03T01:49:48;1.83;;;1.70;;
11807;SDS011;5961;42.640;23.380;2023-02-03T01:52:21;2.53;;;1.93;;
11807;SDS011;5961;42.640;23.380;2023-02-03T01:54:48;2.57;;;1.63;;
11807;SDS011;5961;42.640;23.380;2023-02-03T01:57:22;2.00;;;1.73;;
11807;SDS011;5961;42.640;23.380;2023-02-03T01:59:53;2.00;;;1.90;;
11807;SDS011;5961;42.640;23.380;2023-02-03T02:02:21;2.37;;;1.90;;
11807;SDS011;5961;42.640;23.380;2023-02-03T02:04:49;2.40;;;1.80;;
11807;SDS011;5961;42.640;23.380;2023-02-03T02:07:21;3.10;;;2.03;;
11807;SDS011;5961;42.640;23.380;2023-02-03T02:09:49;2.23;;;1.70;;
11807;SDS011;5961;42.640;23.380;2023-02-03T02:12:16;2.80;;;2.10;;
11807;SDS011;5961;42.640;23.380;2023-02-03T02:14:44;3.20;;;2.30;;
11807;SDS011;5961;42.640;23.380;2023-02-03T02:17:16;2.33;;;2.17;;
11807;SDS011;5961;42.640;23.380;2023-02-03T02:20:11;2.83;;;2.50;;
11807;SDS011;5961;42.640;23.380;2023-02-03T02:22:59;2.10;;;1.90;;
11807;SDS011;5961;42.640;23.380;2023-02-03T02:25:49;2.73;;;2.07;;
11807;SDS011;5961;42.640;23.380;2023-02-03T02:31:47;4.00;;;2.37;;
11807;SDS011;5961;42.640;23.380;2023-02-03T02:34:23;2.13;;;1.67;;
11807;SDS011;5961;42.640;23.380;2023-02-03T02:37:04;2.30;;;2.03;;
11807;SDS011;5961;42.640;23.380;2023-02-03T02:39:37;2.63;;;2.10;;
11807;SDS011;5961;42.640;23.380;2023-02-03T02:42:11;2.20;;;2.00;;
11807;SDS011;5961;42.640;23.380;2023-02-03T02:44:44;2.23;;;2.03;;
11807;SDS011;5961;42.640;23.380;2023-02-03T02:47:18;3.57;;;2.50;;
11807;SDS011;5961;42.640;23.380;2023-02-03T02:49:47;2.40;;;2.10;;
11807;SDS011;5961;42.640;23.380;2023-02-03T02:52:19;2.90;;;2.10;;
11807;SDS011;5961;42.640;23.380;2023-02-03T02:54:50;2.50;;;2.30;;
11807;SDS011;5961;42.640;23.380;2023-02-03T02:57:19;3.13;;;2.20;;
11807;SDS011;5961;42.640;23.380;2023-02-03T02:59:49;3.80;;;2.33;;
11807;SDS011;5961;42.640;23.380;2023-02-03T03:02:15;3.20;;;2.37;;
11807;SDS011;5961;42.640;23.380;2023-02-03T03:04:44;3.23;;;1.97;;
11807;SDS011;5961;42.640;23.380;2023-02-03T03:07:14;2.00;;;1.90;;
11807;SDS011;5961;42.640;23.380;2023-02-03T03:09:45;2.20;;;2.00;;
11807;SDS011;5961;42.640;23.380;2023-02-03T03:12:14;2.50;;;2.30;;
11807;SDS011;5961;42.640;23.380;2023-02-03T03:14:44;1.90;;;1.80;;
11807;SDS011;5961;42.640;23.380;2023-02-03T03:17:15;3.47;;;2.00;;
11807;SDS011;5961;42.640;23.380;2023-02-03T03:19:51;2.27;;;2.10;;
11807;SDS011;5961;42.640;23.380;2023-02-03T03:22:22;2.43;;;2.20;;
11807;SDS011;5961;42.640;23.380;2023-02-03T03:24:54;2.53;;;1.93;;
11807;SDS011;5961;42.640;23.380;2023-02-03T03:27:27;2.50;;;2.30;;
11807;SDS011;5961;42.640;23.380;2023-02-03T03:29:59;2.53;;;2.33;;
11807;SDS011;5961;42.640;23.380;2023-02-03T03:32:29;3.03;;;2.23;;
11807;SDS011;5961;42.640;23.380;2023-02-03T03:34:57;2.67;;;2.20;;
11807;SDS011;5961;42.640;23.380;2023-02-03T03:37:26;2.30;;;2.10;;
11807;SDS011;5961;42.640;23.380;2023-02-03T03:39:59;2.37;;;2.10;;
11807;SDS011;5961;42.640;23.380;2023-02-03T03:42:28;2.90;;;2.27;;
11807;SDS011;5961;42.640;23.380;2023-02-03T03:45:03;3.83;;;2.40;;
11807;SDS011;5961;42.640;23.380;2023-02-03T03:47:37;2.17;;;2.03;;
11807;SDS011;5961;42.640;23.380;2023-02-03T03:50:08;2.97;;;2.10;;
11807;SDS011;5961;42.640;23.380;2023-02-03T03:52:39;3.17;;;2.30;;
11807;SDS011;5961;42.640;23.380;2023-02-03T03:55:09;2.67;;;2.30;;
11807;SDS011;5961;42.640;23.380;2023-02-03T03:57:39;1.87;;;1.77;;
11807;SDS011;5961;42.640;23.380;2023-02-03T04:00:10;3.20;;;2.10;;
11807;SDS011;5961;42.640;23.380;2023-02-03T04:02:44;1.90;;;1.80;;
11807;SDS011;5961;42.640;23.380;2023-02-03T04:05:15;2.47;;;1.77;;
11807;SDS011;5961;42.640;23.380;2023-02-03T04:07:44;4.93;;;2.20;;
11807;SDS011;5961;42.640;23.380;2023-02-03T04:10:13;2.37;;;2.07;;
11807;SDS011;5961;42.640;23.380;2023-02-03T04:12:46;2.00;;;1.90;;
11807;SDS011;5961;42.640;23.380;2023-02-03T04:15:12;2.50;;;2.30;;
11807;SDS011;5961;42.640;23.380;2023-02-03T04:17:39;2.80;;;2.17;;
11807;SDS011;5961;42.640;23.380;2023-02-03T04:20:08;2.77;;;2.47;;
11807;SDS011;5961;42.640;23.380;2023-02-03T04:22:35;3.20;;;2.37;;
11807;SDS011;5961;42.640;23.380;2023-02-03T04:25:02;2.50;;;2.30;;
11807;SDS011;5961;42.640;23.380;2023-02-03T04:27:29;2.47;;;2.27;;
11807;SDS011;5961;42.640;23.380;2023-02-03T04:29:56;2.60;;;2.30;;
11807;SDS011;5961;42.640;23.380;2023-02-03T04:32:23;4.23;;;2.20;;
11807;SDS011;5961;42.640;23.380;2023-02-03T04:34:49;3.07;;;2.50;;
11807;SDS011;5961;42.640;23.380;2023-02-03T04:37:17;3.00;;;2.23;;
11807;SDS011;5961;42.640;23.380;2023-02-03T04:39:45;2.53;;;2.20;;
11807;SDS011;5961;42.640;23.380;2023-02-03T04:42:11;2.50;;;2.30;;
11807;SDS011;5961;42.640;23.380;2023-02-03T04:44:38;4.87;;;2.20;;
11807;SDS011;5961;42.640;23.380;2023-02-03T04:47:05;3.10;;;2.20;;
11807;SDS011;5961;42.640;23.380;2023-02-03T04:49:31;2.63;;;2.43;;
11807;SDS011;5961;42.640;23.380;2023-02-03T04:51:58;3.10;;;2.80;;
11807;SDS011;5961;42.640;23.380;2023-02-03T04:54:26;4.47;;;3.33;;
11807;SDS011;5961;42.640;23.380;2023-02-03T04:56:53;2.90;;;2.70;;
11807;SDS011;5961;42.640;23.380;2023-02-03T04:59:19;3.50;;;2.17;;
11807;SDS011;5961;42.640;23.380;2023-02-03T05:01:46;3.43;;;2.60;;
11807;SDS011;5961;42.640;23.380;2023-02-03T05:04:13;2.87;;;2.60;;
11807;SDS011;5961;42.640;23.380;2023-02-03T05:06:40;2.50;;;2.30;;
11807;SDS011;5961;42.640;23.380;2023-02-03T05:09:06;2.30;;;2.10;;
11807;SDS011;5961;42.640;23.380;2023-02-03T05:11:35;4.17;;;2.17;;
11807;SDS011;5961;42.640;23.380;2023-02-03T05:14:01;3.30;;;2.40;;
11807;SDS011;5961;42.640;23.380;2023-02-03T05:16:28;2.83;;;2.43;;
11807;SDS011;5961;42.640;23.380;2023-02-03T05:18:55;2.57;;;2.37;;
11807;SDS011;5961;42.640;23.380;2023-02-03T05:21:22;2.70;;;2.40;;
11807;SDS011;5961;42.640;23.380;2023-02-03T05:23:48;3.20;;;2.60;;
11807;SDS011;5961;42.640;23.380;2023-02-03T05:26:15;3.77;;;2.80;;
11807;SDS011;5961;42.640;23.380;2023-02-03T05:28:43;2.70;;;2.50;;
11807;SDS011;5961;42.640;23.380;2023-02-03T05:31:10;3.03;;;2.73;;
11807;SDS011;5961;42.640;23.380;2023-02-03T05:33:37;3.33;;;2.53;;
11807;SDS011;5961;42.640;23.380;2023-02-03T05:36:04;2.87;;;2.60;;
11807;SDS011;5961;42.640;23.380;2023-02-03T05:38:31;3.67;;;2.80;;
11807;SDS011;5961;42.640;23.380;2023-02-03T05:40:57;2.90;;;2.70;;
11807;SDS011;5961;42.640;23.380;2023-02-03T05:43:41;3.63;;;2.60;;
11807;SDS011;5961;42.640;23.380;2023-02-03T05:46:09;2.30;;;2.17;;
11807;SDS011;5961;42.640;23.380;2023-02-03T05:48:36;2.87;;;2.60;;
11807;SDS011;5961;42.640;23.380;2023-02-03T05:51:03;3.53;;;2.70;;
11807;SDS011;5961;42.640;23.380;2023-02-03T05:53:30;2.77;;;2.57;;
11807;SDS011;5961;42.640;23.380;2023-02-03T05:55:57;2.80;;;2.60;;
11807;SDS011;5961;42.640;23.380;2023-02-03T05:58:23;2.70;;;2.50;;
11807;SDS011;5961;42.640;23.380;2023-02-03T06:00:50;3.43;;;2.33;;
11807;SDS011;5961;42.640;23.380;2023-02-03T06:03:18;2.73;;;2.20;;
11807;SDS011;5961;42.640;23.380;2023-02-03T06:05:45;3.00;;;2.70;;
11807;SDS011;5961;42.640;23.380;2023-02-03T06:08:12;3.40;;;2.90;;
11807;SDS011;5961;42.640;23.380;2023-02-03T06:10:38;3.37;;;2.90;;
11807;SDS011;5961;42.640;23.380;2023-02-03T06:13:08;2.80;;;2.60;;
11807;SDS011;5961;42.640;23.380;2023-02-03T06:15:36;4.97;;;3.10;;
11807;SDS011;5961;42.640;23.380;2023-02-03T06:18:03;3.30;;;3.00;;
11807;SDS011;5961;42.640;23.380;2023-02-03T06:20:32;4.07;;;3.10;;
11807;SDS011;5961;42.640;23.380;2023-02-03T06:22:58;2.63;;;2.43;;
11807;SDS011;5961;42.640;23.380;2023-02-03T06:25:25;2.97;;;2.77;;
11807;SDS011;5961;42.640;23.380;2023-02-03T06:27:52;3.73;;;2.93;;
11807;SDS011;5961;42.640;23.380;2023-02-03T06:30:19;2.80;;;2.60;;
11807;SDS011;5961;42.640;23.380;2023-02-03T06:32:47;4.17;;;2.80;;
11807;SDS011;5961;42.640;23.380;2023-02-03T06:35:14;2.77;;;2.20;;
11807;SDS011;5961;42.640;23.380;2023-02-03T06:37:43;2.30;;;2.10;;
11807;SDS011;5961;42.640;23.380;2023-02-03T06:40:10;3.97;;;2.40;;
11807;SDS011;5961;42.640;23.380;2023-02-03T06:42:44;3.50;;;2.30;;
11807;SDS011;5961;42.640;23.380;2023-02-03T06:45:15;2.43;;;2.10;;
11807;SDS011;5961;42.640;23.380;2023-02-03T06:47:43;6.33;;;2.40;;
11807;SDS011;5961;42.640;23.380;2023-02-03T06:50:12;2.93;;;2.17;;
11807;SDS011;5961;42.640;23.380;2023-02-03T06:52:40;2.97;;;2.00;;
11807;SDS011;5961;42.640;23.380;2023-02-03T06:55:09;2.27;;;2.07;;
11807;SDS011;5961;42.640;23.380;2023-02-03T06:57:41;1.90;;;1.80;;
11807;SDS011;5961;42.640;23.380;2023-02-03T07:00:09;4.23;;;2.37;;
11807;SDS011;5961;42.640;23.380;2023-02-03T07:02:37;2.50;;;2.20;;
11807;SDS011;5961;42.640;23.380;2023-02-03T07:05:04;2.80;;;2.13;;
11807;SDS011;5961;42.640;23.380;2023-02-03T07:07:31;2.73;;;2.53;;
11807;SDS011;5961;42.640;23.380;2023-02-03T07:09:58;2.73;;;2.53;;
11807;SDS011;5961;42.640;23.380;2023-02-03T07:12:26;4.50;;;2.90;;
11807;SDS011;5961;42.640;23.380;2023-02-03T07:14:53;2.77;;;2.50;;
11807;SDS011;5961;42.640;23.380;2023-02-03T07:17:20;2.77;;;2.47;;
11807;SDS011;5961;42.640;23.380;2023-02-03T07:19:46;2.60;;;2.40;;
11807;SDS011;5961;42.640;23.380;2023-02-03T07:22:13;2.00;;;1.90;;
11807;SDS011;5961;42.640;23.380;2023-02-03T07:24:40;2.40;;;2.20;;
11807;SDS011;5961;42.640;23.380;2023-02-03T07:27:07;4.00;;;2.40;;
11807;SDS011;5961;42.640;23.380;2023-02-03T07:29:35;2.50;;;2.30;;
11807;SDS011;5961;42.640;23.380;2023-02-03T07:32:01;2.60;;;2.40;;
11807;SDS011;5961;42.640;23.380;2023-02-03T07:34:28;2.30;;;2.10;;
11807;SDS011;5961;42.640;23.380;2023-02-03T07:36:55;3.90;;;2.20;;
11807;SDS011;5961;42.640;23.380;2023-02-03T07:39:22;2.63;;;2.10;;
11807;SDS011;5961;42.640;23.380;2023-02-03T07:41:48;5.40;;;2.40;;
11807;SDS011;5961;42.640;23.380;2023-02-03T07:44:15;3.03;;;2.37;;
11807;SDS011;5961;42.640;23.380;2023-02-03T07:46:43;3.10;;;2.60;;
11807;SDS011;5961;42.640;23.380;2023-02-03T07:49:10;5.03;;;2.23;;
11807;SDS011;5961;42.640;23.380;2023-02-03T07:51:37;2.20;;;2.00;;
11807;SDS011;5961;42.640;23.380;2023-02-03T07:54:04;3.10;;;2.37;;
11807;SDS011;5961;42.640;23.380;2023-02-03T07:56:30;3.10;;;2.80;;
11807;SDS011;5961;42.640;23.380;2023-02-03T07:58:57;3.33;;;3.00;;
11807;SDS011;5961;42.640;23.380;2023-02-03T08:01:24;3.50;;;2.40;;
11807;SDS011;5961;42.640;23.380;2023-02-03T08:03:53;3.07;;;2.17;;
11807;SDS011;5961;42.640;23.380;2023-02-03T08:06:19;2.77;;;2.20;;
11807;SDS011;5961;42.640;23.380;2023-02-03T08:08:46;2.60;;;2.40;;
11807;SDS011;5961;42.640;23.380;2023-02-03T08:11:13;4.80;;;1.97;;
11807;SDS011;5961;42.640;23.380;2023-02-03T08:13:39;4.07;;;2.20;;
11807;SDS011;5961;42.640;23.380;2023-02-03T08:16:06;2.47;;;2.20;;
11807;SDS011;5961;42.640;23.380;2023-02-03T08:18:33;3.63;;;2.13;;
11807;SDS011;5961;42.640;23.380;2023-02-03T08:21:01;4.57;;;2.63;;
11807;SDS011;5961;42.640;23.380;2023-02-03T08:23:29;2.17;;;1.80;;
11807;SDS011;5961;42.640;23.380;2023-02-03T08:25:56;2.33;;;2.13;;
11807;SDS011;5961;42.640;23.380;2023-02-03T08:28:22;2.03;;;1.80;;
11807;SDS011;5961;42.640;23.380;2023-02-03T08:30:49;2.60;;;2.40;;
11807;SDS011;5961;42.640;23.380;2023-02-03T08:33:16;3.03;;;2.10;;
11807;SDS011;5961;42.640;23.380;2023-02-03T08:35:44;2.27;;;1.90;;
11807;SDS011;5961;42.640;23.380;2023-02-03T08:38:13;2.43;;;2.07;;
11807;SDS011;5961;42.640;23.380;2023-02-03T08:40:40;2.70;;;1.70;;
11807;SDS011;5961;42.640;23.380;2023-02-03T08:43:07;2.97;;;1.90;;
11807;SDS011;5961;42.640;23.380;2023-02-03T08:45:35;3.93;;;2.13;;
11807;SDS011;5961;42.640;23.380;2023-02-03T08:48:02;3.50;;;2.43;;
11807;SDS011;5961;42.640;23.380;2023-02-03T08:50:28;2.80;;;2.33;;
11807;SDS011;5961;42.640;23.380;2023-02-03T08:52:55;2.10;;;1.90;;
11807;SDS011;5961;42.640;23.380;2023-02-03T08:55:23;2.63;;;2.00;;
11807;SDS011;5961;42.640;23.380;2023-02-03T08:57:50;2.07;;;1.97;;
11807;SDS011;5961;42.640;23.380;2023-02-03T09:00:17;3.10;;;2.07;;
11807;SDS011;5961;42.640;23.380;2023-02-03T09:02:44;2.40;;;1.90;;
11807;SDS011;5961;42.640;23.380;2023-02-03T09:05:11;2.37;;;2.17;;
11807;SDS011;5961;42.640;23.380;2023-02-03T09:07:40;2.00;;;1.80;;
11807;SDS011;5961;42.640;23.380;2023-02-03T09:10:06;2.60;;;2.00;;
11807;SDS011;5961;42.640;23.380;2023-02-03T09:12:35;2.00;;;1.80;;
11807;SDS011;5961;42.640;23.380;2023-02-03T09:15:02;3.00;;;1.90;;
11807;SDS011;5961;42.640;23.380;2023-02-03T09:17:29;2.33;;;1.83;;
11807;SDS011;5961;42.640;23.380;2023-02-03T09:19:55;2.33;;;1.70;;
11807;SDS011;5961;42.640;23.380;2023-02-03T09:22:22;3.40;;;1.97;;
11807;SDS011;5961;42.640;23.380;2023-02-03T09:24:49;1.77;;;1.67;;
11807;SDS011;5961;42.640;23.380;2023-02-03T09:27:16;1.70;;;1.60;;
11807;SDS011;5961;42.640;23.380;2023-02-03T09:29:44;3.07;;;1.83;;
11807;SDS011;5961;42.640;23.380;2023-02-03T09:32:10;4.63;;;2.33;;
11807;SDS011;5961;42.640;23.380;2023-02-03T09:34:37;3.93;;;2.70;;
11807;SDS011;5961;42.640;23.380;2023-02-03T09:37:05;5.70;;;2.37;;
11807;SDS011;5961;42.640;23.380;2023-02-03T09:39:32;3.10;;;2.20;;
11807;SDS011;5961;42.640;23.380;2023-02-03T09:42:05;2.40;;;2.20;;
11807;SDS011;5961;42.640;23.380;2023-02-03T09:44:41;2.13;;;1.90;;
11807;SDS011;5961;42.640;23.380;2023-02-03T09:47:14;2.40;;;2.20;;
11807;SDS011;5961;42.640;23.380;2023-02-03T09:49:44;2.50;;;1.87;;
11807;SDS011;5961;42.640;23.380;2023-02-03T09:52:16;2.07;;;1.90;;
11807;SDS011;5961;42.640;23.380;2023-02-03T09:54:48;1.97;;;1.70;;
11807;SDS011;5961;42.640;23.380;2023-02-03T09:57:20;2.50;;;2.00;;
11807;SDS011;5961;42.640;23.380;2023-02-03T09:59:49;3.70;;;2.67;;
11807;SDS011;5961;42.640;23.380;2023-02-03T10:02:22;2.90;;;2.07;;
11807;SDS011;5961;42.640;23.380;2023-02-03T10:04:57;2.10;;;1.90;;
11807;SDS011;5961;42.640;23.380;2023-02-03T10:07:27;3.67;;;1.97;;
11807;SDS011;5961;42.640;23.380;2023-02-03T10:10:03;1.97;;;1.80;;
11807;SDS011;5961;42.640;23.380;2023-02-03T10:12:42;2.27;;;1.90;;
11807;SDS011;5961;42.640;23.380;2023-02-03T10:15:27;3.67;;;2.40;;
11807;SDS011;5961;42.640;23.380;2023-02-03T10:18:04;3.60;;;2.30;;
11807;SDS011;5961;42.640;23.380;2023-02-03T10:20:34;3.50;;;1.90;;
11807;SDS011;5961;42.640;23.380;2023-02-03T10:23:08;2.07;;;1.97;;
11807;SDS011;5961;42.640;23.380;2023-02-03T10:25:39;1.87;;;1.77;;
11807;SDS011;5961;42.640;23.380;2023-02-03T10:28:09;2.60;;;2.40;;
11807;SDS011;5961;42.640;23.380;2023-02-03T10:30:43;1.80;;;1.70;;
11807;SDS011;5961;42.640;23.380;2023-02-03T10:33:14;1.60;;;1.50;;
11807;SDS011;5961;42.640;23.380;2023-02-03T10:35:44;2.10;;;1.90;;
11807;SDS011;5961;42.640;23.380;2023-02-03T10:38:18;1.93;;;1.77;;
11807;SDS011;5961;42.640;23.380;2023-02-03T10:40:55;4.60;;;2.07;;
11807;SDS011;5961;42.640;23.380;2023-02-03T10:43:22;3.63;;;2.13;;
11807;SDS011;5961;42.640;23.380;2023-02-03T10:46:07;2.87;;;2.37;;
11807;SDS011;5961;42.640;23.380;2023-02-03T10:48:34;3.80;;;2.30;;
11807;SDS011;5961;42.640;23.380;2023-02-03T10:51:01;2.53;;;1.97;;
11807;SDS011;5961;42.640;23.380;2023-02-03T10:53:31;3.97;;;2.27;;
11807;SDS011;5961;42.640;23.380;2023-02-03T10:56:00;3.40;;;2.03;;
11807;SDS011;5961;42.640;23.380;2023-02-03T10:58:30;4.20;;;2.57;;
11807;SDS011;5961;42.640;23.380;2023-02-03T11:01:03;2.20;;;1.83;;
11807;SDS011;5961;42.640;23.380;2023-02-03T11:03:33;2.90;;;2.60;;
11807;SDS011;5961;42.640;23.380;2023-02-03T11:06:05;2.53;;;2.33;;
11807;SDS011;5961;42.640;23.380;2023-02-03T11:08:34;4.43;;;2.50;;
11807;SDS011;5961;42.640;23.380;2023-02-03T11:11:02;2.83;;;2.17;;
11807;SDS011;5961;42.640;23.380;2023-02-03T11:13:31;2.70;;;1.90;;
11807;SDS011;5961;42.640;23.380;2023-02-03T11:15:58;1.93;;;1.70;;
11807;SDS011;5961;42.640;23.380;2023-02-03T11:18:36;1.83;;;1.50;;
11807;SDS011;5961;42.640;23.380;2023-02-03T11:21:05;2.63;;;1.90;;
11807;SDS011;5961;42.640;23.380;2023-02-03T11:23:43;2.13;;;1.80;;
11807;SDS011;5961;42.640;23.380;2023-02-03T11:26:14;2.77;;;2.03;;
11807;SDS011;5961;42.640;23.380;2023-02-03T11:28:44;2.37;;;2.10;;
11807;SDS011;5961;42.640;23.380;2023-02-03T11:31:14;1.70;;;1.53;;
11807;SDS011;5961;42.640;23.380;2023-02-03T11:33:46;3.77;;;1.80;;
11807;SDS011;5961;42.640;23.380;2023-02-03T11:36:15;2.23;;;2.10;;
11807;SDS011;5961;42.640;23.380;2023-02-03T11:38:43;3.27;;;1.87;;
11807;SDS011;5961;42.640;23.380;2023-02-03T11:41:16;1.90;;;1.80;;
11807;SDS011;5961;42.640;23.380;2023-02-03T11:43:44;4.33;;;2.07;;
11807;SDS011;5961;42.640;23.380;2023-02-03T11:46:11;2.17;;;1.80;;
11807;SDS011;5961;42.640;23.380;2023-02-03T11:48:42;3.53;;;1.80;;
11807;SDS011;5961;42.640;23.380;2023-02-03T11:51:21;1.53;;;1.43;;
11807;SDS011;5961;42.640;23.380;2023-02-03T11:54:00;1.83;;;1.73;;
11807;SDS011;5961;42.640;23.380;2023-02-03T11:59:41;3.23;;;1.90;;
11807;SDS011;5961;42.640;23.380;2023-02-03T12:02:31;2.13;;;1.70;;
11807;SDS011;5961;42.640;23.380;2023-02-03T12:05:20;2.20;;;1.63;;
11807;SDS011;5961;42.640;23.380;2023-02-03T12:08:17;2.13;;;1.87;;
11807;SDS011;5961;42.640;23.380;2023-02-03T12:10:56;1.97;;;1.80;;
11807;SDS011;5961;42.640;23.380;2023-02-03T12:13:36;2.83;;;1.63;;
11807;SDS011;5961;42.640;23.380;2023-02-03T12:16:24;2.00;;;1.90;;
11807;SDS011;5961;42.640;23.380;2023-02-03T12:19:13;2.20;;;2.00;;
11807;SDS011;5961;42.640;23.380;2023-02-03T12:21:50;2.33;;;2.10;;
11807;SDS011;5961;42.640;23.380;2023-02-03T12:24:25;2.20;;;2.10;;
11807;SDS011;5961;42.640;23.380;2023-02-03T12:27:05;2.47;;;1.80;;
11807;SDS011;5961;42.640;23.380;2023-02-03T12:29:43;1.70;;;1.60;;
11807;SDS011;5961;42.640;23.380;2023-02-03T12:32:17;2.13;;;1.93;;
11807;SDS011;5961;42.640;23.380;2023-02-03T12:34:51;2.87;;;1.80;;
11807;SDS011;5961;42.640;23.380;2023-02-03T12:37:23;1.70;;;1.60;;
11807;SDS011;5961;42.640;23.380;2023-02-03T12:39:53;3.50;;;1.73;;
11807;SDS011;5961;42.640;23.380;2023-02-03T12:42:25;1.87;;;1.73;;
11807;SDS011;5961;42.640;23.380;2023-02-03T12:44:56;2.57;;;1.80;;
11807;SDS011;5961;42.640;23.380;2023-02-03T12:47:26;5.87;;;1.90;;
11807;SDS011;5961;42.640;23.380;2023-02-03T12:49:58;1.80;;;1.70;;
11807;SDS011;5961;42.640;23.380;2023-02-03T12:52:33;2.40;;;1.70;;
11807;SDS011;5961;42.640;23.380;2023-02-03T12:55:07;2.90;;;2.40;;
11807;SDS011;5961;42.640;23.380;2023-02-03T12:57:46;3.07;;;2.17;;
11807;SDS011;5961;42.640;23.380;2023-02-03T13:00:20;2.23;;;2.03;;
11807;SDS011;5961;42.640;23.380;2023-02-03T13:02:59;2.50;;;2.30;;
11807;SDS011;5961;42.640;23.380;2023-02-03T13:05:35;2.60;;;2.20;;
11807;SDS011;5961;42.640;23.380;2023-02-03T13:08:12;2.80;;;2.60;;
11807;SDS011;5961;42.640;23.380;2023-02-03T13:10:47;2.47;;;2.10;;
11807;SDS011;5961;42.640;23.380;2023-02-03T13:13:20;3.43;;;2.00;;
11807;SDS011;5961;42.640;23.380;2023-02-03T13:15:54;2.20;;;2.00;;
11807;SDS011;5961;42.640;23.380;2023-02-03T13:18:24;3.97;;;2.30;;
11807;SDS011;5961;42.640;23.380;2023-02-03T13:20:54;2.70;;;2.40;;
11807;SDS011;5961;42.640;23.380;2023-02-03T13:23:23;2.47;;;2.00;;
11807;SDS011;5961;42.640;23.380;2023-02-03T13:29:05;4.20;;;2.80;;
11807;SDS011;5961;42.640;23.380;2023-02-03T13:31:44;2.60;;;2.40;;
11807;SDS011;5961;42.640;23.380;2023-02-03T13:37:25;2.97;;;2.67;;
11807;SDS011;5961;42.640;23.380;2023-02-03T13:40:15;4.83;;;2.80;;
11807;SDS011;5961;42.640;23.380;2023-02-03T13:42:51;3.03;;;2.73;;
11807;SDS011;5961;42.640;23.380;2023-02-03T13:45:22;2.83;;;2.47;;
11807;SDS011;5961;42.640;23.380;2023-02-03T13:47:53;2.73;;;2.50;;
11807;SDS011;5961;42.640;23.380;2023-02-03T13:50:22;2.43;;;2.23;;
11807;SDS011;5961;42.640;23.380;2023-02-03T13:52:53;3.17;;;2.50;;
11807;SDS011;5961;42.640;23.380;2023-02-03T13:55:29;2.63;;;2.43;;
11807;SDS011;5961;42.640;23.380;2023-02-03T13:58:00;2.67;;;2.37;;
11807;SDS011;5961;42.640;23.380;2023-02-03T14:03:39;4.40;;;3.00;;
11807;SDS011;5961;42.640;23.380;2023-02-03T14:06:09;5.37;;;2.80;;
11807;SDS011;5961;42.640;23.380;2023-02-03T14:12:43;4.40;;;2.77;;
11807;SDS011;5961;42.640;23.380;2023-02-03T14:15:31;3.33;;;3.10;;
11807;SDS011;5961;42.640;23.380;2023-02-03T14:26:34;3.23;;;2.50;;
11807;SDS011;5961;42.640;23.380;2023-02-03T14:29:07;3.00;;;2.40;;
11807;SDS011;5961;42.640;23.380;2023-02-03T14:31:55;3.17;;;2.63;;
11807;SDS011;5961;42.640;23.380;2023-02-03T14:34:32;4.97;;;2.60;;
11807;SDS011;5961;42.640;23.380;2023-02-03T14:37:16;3.30;;;3.00;;
11807;SDS011;5961;42.640;23.380;2023-02-03T14:43:02;4.27;;;3.47;;
11807;SDS011;5961;42.640;23.380;2023-02-03T14:45:49;4.90;;;3.10;;
11807;SDS011;5961;42.640;23.380;2023-02-03T14:48:45;3.70;;;3.03;;
11807;SDS011;5961;42.640;23.380;2023-02-03T14:51:20;4.47;;;3.30;;
11807;SDS011;5961;42.640;23.380;2023-02-03T14:54:09;2.80;;;2.60;;
11807;SDS011;5961;42.640;23.380;2023-02-03T14:56:48;3.37;;;2.80;;
11807;SDS011;5961;42.640;23.380;2023-02-03T14:59:44;4.13;;;2.67;;
11807;SDS011;5961;42.640;23.380;2023-02-03T15:02:18;6.97;;;3.13;;
11807;SDS011;5961;42.640;23.380;2023-02-03T15:04:47;3.27;;;2.40;;
11807;SDS011;5961;42.640;23.380;2023-02-03T15:07:34;4.13;;;2.90;;
11807;SDS011;5961;42.640;23.380;2023-02-03T15:10:08;4.23;;;2.63;;
11807;SDS011;5961;42.640;23.380;2023-02-03T15:12:42;2.70;;;2.50;;
11807;SDS011;5961;42.640;23.380;2023-02-03T15:15:11;3.30;;;2.80;;
11807;SDS011;5961;42.640;23.380;2023-02-03T15:17:40;4.70;;;3.40;;
11807;SDS011;5961;42.640;23.380;2023-02-03T15:20:31;3.53;;;2.93;;
11807;SDS011;5961;42.640;23.380;2023-02-03T15:22:59;5.53;;;3.30;;
11807;SDS011;5961;42.640;23.380;2023-02-03T15:25:27;6.77;;;3.43;;
11807;SDS011;5961;42.640;23.380;2023-02-03T15:28:09;4.10;;;3.20;;
11807;SDS011;5961;42.640;23.380;2023-02-03T15:30:37;3.60;;;3.23;;
11807;SDS011;5961;42.640;23.380;2023-02-03T15:33:07;4.57;;;3.23;;
11807;SDS011;5961;42.640;23.380;2023-02-03T15:35:41;3.63;;;2.83;;
11807;SDS011;5961;42.640;23.380;2023-02-03T15:38:11;4.50;;;3.07;;
11807;SDS011;5961;42.640;23.380;2023-02-03T15:40:41;5.30;;;2.60;;